Indianapolis, IN

3:09 AM EDT on July 26, 2016 (GMT -0400)
Thompson Medows | | Change Station

Elev 745 ft 39.69 °N, 86.26 °W | Updated 11 seconds ago

Overcast
Overcast
75.6 °F
Feels Like 76 °F
N
2.2
Wind Variable Wind from NE

Today
High -- | Low -- °F
--% Chance of Precip.
Yesterday
High -- | Low -- °F
Precip. -- in
Pressure 30.00 in
Visibility 10.0 miles
Clouds Mostly Cloudy 4300 ft
Mostly Cloudy 12000 ft
Overcast 14000 ft
Heat Index 76 °F
Dew Point 69 °F
Humidity 81%
Rainfall 0.00 in
Snow Depth Not available.
6:39 AM 9:03 PM
Waning Gibbous, 57% visible
METAR KIND 260654Z 03006KT 10SM BKN043 BKN120 OVC140 25/20 A3002 RMK AO2 SLP158 T02500200
Pressure 30.00 in
Visibility 10.0 miles
Clouds Mostly Cloudy 4300 ft
Mostly Cloudy 12000 ft
Overcast 14000 ft
Heat Index 76 °F
Dew Point 69 °F
Humidity 81%
Rainfall 0.00 in
Snow Depth Not available.
6:39 AM 9:03 PM
Waning Gibbous, 57% visible
METAR KIND 260654Z 03006KT 10SM BKN043 BKN120 OVC140 25/20 A3002 RMK AO2 SLP158 T02500200

10-Day Weather Forecast

Almanac

Astronomy

Jul. 26, 2016 Rise Set
Actual Time
Civil Twilight
Nautical Twilight
Astronomical Twilight
Moon
Length of Visible Light
Length of Day
Tomorrow will be .
, % of the Moon is Illuminated

Today's Extremes

State Highs State Lows

Community

WunderPhotos

Upload Photos

1,927,552 photos uploaded!

WunderBlog® & News

Nearby

Air Quality

  Air Quality AQ Index Pollutant
Not available.

Snow Depth

Station Depth Elevation

Earthquake Activity

City Distance Mag. Time & Date
Minimum magnitude displayed is 2.5.

Coastal Water Temperatures

Place Temperature

Stations

Nearby Weather Stations

Station Location Temp. Windchill Dew Point Humidity Wind Precip. Elev Updated Type
                   

Watches & Warnings

There are currently no watches in effect.